Aérodrome :
LOGIN :

S'inscrire | Disclaimer

   EN    FR    IT 

 










Légende :    VFR   VFR Marginal   IFR   IFR Intensif   IFR Très Intensif
Visi : 
Plafond : 
>= 8 km
>= 3000ft
5 à 8 km
1000 à 3000 ft
1500m à 5 km
500 à 1000 ft
800 à 1500m
200 à 500 ft
< 800m
< 200 ft
Symboles :   Orages  Brouillard  Fortes neiges  Fortes précipitations  Vent > 20 kt
SIGMETs :   Divers  Orages  Givrage  Turbulence  Onde Orograph.  Cendres Volcan.






- Altitude de l'aérodrome : 1066 ft


EGOM - RAF Spadeadam

DERNIER METAR :
  • 162050Z AUTO 05011KT 9999 OVC007/// 11/10 Q1014

METARs EXPIRÉS :
  • 162020Z AUTO 05011KT 9999 OVC007/// 12/10 Q1014
  • 161950Z AUTO 06010KT 9999 OVC008/// 12/10 Q1014
  • 161920Z AUTO 06010KT 9999 OVC008/// 12/11 Q1013
  • 161850Z AUTO 06012KT 9999 OVC009/// 13/11 Q1012
  • 161820Z AUTO 05009KT 9999 OVC010/// 13/11 Q1012
  • 161750Z AUTO 05011KT 9999 OVC014/// 13/11 Q1011

Prévision TAF périmée.



MET'MAP, la Météo Aéronautique d'un coup d'oeil ! - Copyright ORBIFLY Décembre 2007 - Disclaimer

ORBIFLY MET'MAP TEAM :

Programmation & Développement : Alexandra Zaïnal
Sur une idée originale de : Baudouin d'Aumeries
Soutien technique & logistique : Manuel Goepfert
Assistance : Marc-Olivier Méhu




SOURCES & CREDITS :

   NOAA